Penguin Arrow — C6PA6 — position and weather

sailwx.info

Track history (hours):
 
Tides and Currents Weather Stations Pressure Air Temp Water Temp Dewpoint Dewpoint Depression Visibility Wind Speed Wind Dir Waves Ship Positions

Penguin Arrow

Last reported at 2014-Nov-25 22:11 UTC. Time now 2014-Nov-27 02:40 UTC.
Position S 34°44' W 057°47'.

Length 200 m; draft 7 m.

Type: Cargo ship. MMSI: 309927000.

Date/timePositionNaut miles runAvg speedWind from/ knotsBaromVisibWave heightAir tempDewpointWater temp
2014-Nov-25 22:11S 34°44' W 057°47'912.4
2014-Nov-25 21:30S 34°41' W 057°57'1010.7
2014-Nov-25 20:33S 34°31' W 057°56'9 9.4
2014-Nov-25 19:33S 34°22' W 058°01'1 0.0
2014-Nov-24 10:15S 34°21' W 058°01'811.4
2014-Nov-24 09:33S 34°28' W 057°57'10 9.8
2014-Nov-24 08:33S 34°38' W 057°58'7 6.8
2014-Nov-24 07:33S 34°44' W 057°53'0 0.0
2014-Nov-24 00:30S 34°44' W 057°53'0 0.1
2014-Nov-23 22:33S 34°44' W 057°53'0 0.0
2014-Nov-23 21:33S 34°44' W 057°53'0 0.0
2014-Nov-23 20:33S 34°44' W 057°53'0 0.1
2014-Nov-23 19:27S 34°44' W 057°53'0 0.1
2014-Nov-23 18:33S 34°44' W 057°53'0 0.0
2014-Nov-23 15:20S 34°44' W 057°53'  
2014-Nov-19 18:33S 34°40' W 058°03'1211.7
2014-Nov-19 17:34S 34°44' W 057°50'  
Track history (hours):
 
Tides and Currents Weather Stations Pressure Air Temp Water Temp Dewpoint Dewpoint Depression Visibility Wind Speed Wind Dir Waves Ship Positions

Penguin Arrow

Last reported at 2014-Nov-25 22:11 UTC. Time now 2014-Nov-27 02:40 UTC.
Position S 34°44' W 057°47'.

Length 200 m; draft 7 m.

Type: Cargo ship. MMSI: 309927000.

Date/timePositionNaut miles runAvg speedWind from/ knotsBaromVisibWave heightAir tempDewpointWater temp
2014-Nov-25 22:11S 34°44' W 057°47'912.4
2014-Nov-25 21:30S 34°41' W 057°57'1010.7
2014-Nov-25 20:33S 34°31' W 057°56'9 9.4
2014-Nov-25 19:33S 34°22' W 058°01'1 0.0
2014-Nov-24 10:15S 34°21' W 058°01'811.4
2014-Nov-24 09:33S 34°28' W 057°57'10 9.8
2014-Nov-24 08:33S 34°38' W 057°58'7 6.8
2014-Nov-24 07:33S 34°44' W 057°53'0 0.0
2014-Nov-24 00:30S 34°44' W 057°53'0 0.1
2014-Nov-23 22:33S 34°44' W 057°53'0 0.0
2014-Nov-23 21:33S 34°44' W 057°53'0 0.0
2014-Nov-23 20:33S 34°44' W 057°53'0 0.1
2014-Nov-23 19:27S 34°44' W 057°53'0 0.1
2014-Nov-23 18:33S 34°44' W 057°53'0 0.0
2014-Nov-23 15:20S 34°44' W 057°53'  
2014-Nov-19 18:33S 34°40' W 058°03'1211.7
2014-Nov-19 17:34S 34°44' W 057°50'  

Dump ship's entire track history